Time;durP1;ratioP1;P1;durP2;ratioP2;P2;SDS_P1;SDS_P2;PMS_P1;PMS_P2;Temp;Humidity;BMP_temperature;BMP_pressure;BME280_temperature;BME280_humidity;BME280_pressure;Samples;Min_cycle;Max_cycle;Signal;HPM_P1;HPM_P2
2021/06/03 00:01:05;;;;;;;18.65;13.02;;;17.70;84.10;;;;;;4949593;28;20118;-84
2021/06/03 00:03:31;;;;;;;17.30;12.52;;;17.60;84.10;;;;;;4954658;28;20286;-84
2021/06/03 00:06:00;;;;;;;17.75;12.68;;;17.60;84.10;;;;;;4950718;29;20541;-87
2021/06/03 00:08:28;;;;;;;14.82;11.75;;;17.60;84.30;;;;;;4953322;28;20566;-84
2021/06/03 00:10:56;;;;;;;19.10;12.95;;;17.60;84.30;;;;;;4953213;28;20035;-84
2021/06/03 00:13:24;;;;;;;21.80;12.32;;;17.60;84.30;;;;;;4934062;28;20035;-85
2021/06/03 00:15:50;;;;;;;17.45;12.07;;;17.60;84.60;;;;;;4951641;28;20067;-86
2021/06/03 00:18:16;;;;;;;25.23;13.23;;;17.60;84.60;;;;;;4934421;28;20123;-84
2021/06/03 00:20:43;;;;;;;19.55;12.73;;;17.50;84.60;;;;;;4927939;28;20510;-84
2021/06/03 00:23:08;;;;;;;22.00;12.52;;;17.50;84.80;;;;;;4995182;28;20015;-88
2021/06/03 00:25:34;;;;;;;22.83;12.88;;;17.50;85.00;;;;;;4970120;28;20549;-87
2021/06/03 00:28:00;;;;;;;17.13;12.82;;;17.50;85.10;;;;;;4941320;28;20530;-86
2021/06/03 00:30:27;;;;;;;19.20;12.35;;;17.40;85.30;;;;;;4916667;29;20555;-87
2021/06/03 00:32:53;;;;;;;17.95;12.18;;;17.40;85.30;;;;;;4968842;28;20312;-86
2021/06/03 00:35:19;;;;;;;16.80;11.52;;;17.40;85.60;;;;;;4949316;28;20039;-85
2021/06/03 00:37:46;;;;;;;17.88;12.77;;;17.40;85.80;;;;;;4934368;29;20414;-85
2021/06/03 00:40:15;;;;;;;20.25;11.02;;;17.40;86.50;;;;;;4926238;29;20358;-85
2021/06/03 00:42:43;;;;;;;14.85;12.07;;;17.30;85.80;;;;;;4950209;28;20366;-86
2021/06/03 00:45:16;;;;;;;16.08;10.73;;;17.30;86.00;;;;;;4938430;28;20043;-87
2021/06/03 00:47:42;;;;;;;15.77;11.23;;;17.30;86.10;;;;;;4935981;28;20494;-87
2021/06/03 00:50:15;;;;;;;14.43;10.77;;;17.30;86.10;;;;;;4932870;28;20118;-86
2021/06/03 00:52:41;;;;;;;14.48;10.38;;;17.30;86.20;;;;;;4935980;28;20558;-85
2021/06/03 00:55:08;;;;;;;15.40;10.35;;;17.20;86.10;;;;;;4928491;28;20099;-85
2021/06/03 00:57:34;;;;;;;12.93;10.25;;;17.20;87.00;;;;;;4925230;29;20106;-85
2021/06/03 01:00:00;;;;;;;12.23;9.93;;;17.20;86.50;;;;;;4921337;28;20515;-85
2021/06/03 01:02:26;;;;;;;13.48;9.27;;;17.20;86.50;;;;;;4966556;28;20536;-86
2021/06/03 01:04:52;;;;;;;10.98;8.70;;;17.30;86.50;;;;;;4938638;28;20652;-85
2021/06/03 01:07:18;;;;;;;16.80;9.30;;;17.30;86.30;;;;;;4929308;28;20086;-85
2021/06/03 01:10:03;;;;;;;12.90;9.13;;;17.30;86.20;;;;;;4923918;28;20546;-85
2021/06/03 01:12:38;;;;;;;12.75;8.45;;;17.30;85.90;;;;;;4935725;28;20070;-85
2021/06/03 01:15:07;;;;;;;10.20;8.00;;;17.30;85.70;;;;;;4944189;28;20042;-86
2021/06/03 01:17:34;;;;;;;16.63;8.98;;;17.30;85.30;;;;;;4926992;28;20118;-86
2021/06/03 01:20:00;;;;;;;12.43;8.45;;;17.40;85.00;;;;;;4912677;28;20135;-85
2021/06/03 01:22:41;;;;;;;17.48;8.15;;;17.40;84.80;;;;;;4938592;28;20047;-85
2021/06/03 01:25:09;;;;;;;10.15;7.13;;;17.40;84.80;;;;;;4942226;28;20031;-85
2021/06/03 01:27:35;;;;;;;11.20;7.90;;;17.50;84.60;;;;;;4961735;28;20457;-85
2021/06/03 01:30:22;;;;;;;11.88;8.07;;;17.50;84.10;;;;;;4977588;28;20050;-85
2021/06/03 01:32:52;;;;;;;9.43;7.78;;;17.50;83.80;;;;;;4966622;28;20039;-85
2021/06/03 01:35:21;;;;;;;14.00;8.57;;;17.40;83.80;;;;;;4946456;28;20471;-85
2021/06/03 01:37:48;;;;;;;12.90;8.98;;;17.40;83.60;;;;;;4951381;28;20046;-85
2021/06/03 01:40:16;;;;;;;11.27;8.55;;;17.40;83.60;;;;;;4920381;29;20113;-85
2021/06/03 01:42:43;;;;;;;12.18;8.88;;;17.40;83.60;;;;;;4944962;28;20077;-86
2021/06/03 01:45:10;;;;;;;8.88;7.68;;;17.40;83.80;;;;;;4941799;28;20505;-85
2021/06/03 01:47:37;;;;;;;13.23;8.43;;;17.40;84.50;;;;;;4930451;28;22195;-85
2021/06/03 01:50:05;;;;;;;12.38;8.13;;;17.30;83.80;;;;;;4936223;28;20059;-86
2021/06/03 01:52:32;;;;;;;9.80;8.30;;;17.30;84.20;;;;;;4955875;28;20505;-85
2021/06/03 01:54:59;;;;;;;10.00;7.90;;;17.30;84.30;;;;;;4933757;28;21524;-85
2021/06/03 01:57:25;;;;;;;10.55;7.40;;;17.30;84.70;;;;;;4971118;28;20442;-85
2021/06/03 01:59:51;;;;;;;11.98;7.25;;;17.30;84.20;;;;;;4934912;28;20039;-85
2021/06/03 02:02:17;;;;;;;12.98;7.60;;;17.30;84.00;;;;;;4972848;28;20067;-86
2021/06/03 02:04:42;;;;;;;11.52;7.53;;;17.30;84.00;;;;;;4936395;29;20110;-86
2021/06/03 02:07:08;;;;;;;9.98;7.60;;;17.30;84.00;;;;;;4919916;28;20035;-86
2021/06/03 02:09:35;;;;;;;10.77;7.43;;;17.20;83.60;;;;;;4962886;28;20062;-86
2021/06/03 02:12:01;;;;;;;14.07;7.57;;;17.20;83.10;;;;;;4950138;28;20047;-85
2021/06/03 02:14:34;;;;;;;8.85;7.25;;;17.30;83.30;;;;;;4971120;28;20179;-85
2021/06/03 02:17:05;;;;;;;9.48;7.35;;;17.30;82.60;;;;;;4951738;28;20035;-86
2021/06/03 02:19:40;;;;;;;10.05;6.95;;;17.20;82.50;;;;;;4949949;28;20086;-86
2021/06/03 02:22:07;;;;;;;13.20;7.30;;;17.30;82.30;;;;;;4955144;28;20039;-85
2021/06/03 02:24:33;;;;;;;9.98;7.53;;;17.30;81.70;;;;;;4939064;29;20553;-86
2021/06/03 02:26:59;;;;;;;7.95;7.15;;;17.30;81.40;;;;;;4937588;28;20047;-85
2021/06/03 02:29:25;;;;;;;11.02;7.72;;;17.30;81.40;;;;;;4928595;29;20410;-84
2021/06/03 02:31:52;;;;;;;12.10;7.53;;;17.30;81.10;;;;;;4955280;28;20028;-83
2021/06/03 02:34:18;;;;;;;13.93;8.43;;;17.30;80.60;;;;;;4976959;28;20311;-83
2021/06/03 02:36:44;;;;;;;9.38;6.97;;;17.30;80.20;;;;;;4941798;28;20031;-84
2021/06/03 02:39:10;;;;;;;9.32;8.18;;;17.30;79.80;;;;;;4947076;28;20039;-83
2021/06/03 02:41:36;;;;;;;12.40;7.25;;;17.30;79.60;;;;;;4971281;28;20023;-85
2021/06/03 02:44:04;;;;;;;8.90;7.35;;;17.30;79.20;;;;;;4962075;28;20872;-85
2021/06/03 02:46:30;;;;;;;13.00;7.97;;;17.30;79.30;;;;;;4923527;29;20336;-83
2021/06/03 02:48:56;;;;;;;11.10;7.47;;;17.30;79.10;;;;;;4934200;28;20050;-84
2021/06/03 02:51:22;;;;;;;9.07;7.38;;;17.30;79.00;;;;;;4957140;28;20039;-82
2021/06/03 02:53:48;;;;;;;11.90;8.18;;;17.30;79.10;;;;;;4940206;28;20070;-83
2021/06/03 02:56:15;;;;;;;11.18;7.75;;;17.30;78.90;;;;;;4947482;28;20039;-83
2021/06/03 02:58:41;;;;;;;9.52;7.47;;;17.30;78.70;;;;;;4956400;28;20039;-83
2021/06/03 03:01:07;;;;;;;8.90;7.72;;;17.30;79.00;;;;;;4948590;28;20502;-85
2021/06/03 03:03:34;;;;;;;9.52;7.55;;;17.30;78.90;;;;;;4955174;28;20039;-84
2021/06/03 03:06:00;;;;;;;9.35;7.85;;;17.30;78.90;;;;;;4934402;29;20043;-84
2021/06/03 03:08:26;;;;;;;9.32;8.10;;;17.30;79.00;;;;;;4951720;28;20038;-83
2021/06/03 03:10:55;;;;;;;8.93;8.02;;;17.20;78.90;;;;;;4946653;28;20507;-83
2021/06/03 03:13:21;;;;;;;11.32;8.38;;;17.20;78.90;;;;;;4936399;28;20032;-84
2021/06/03 03:15:48;;;;;;;10.00;8.27;;;17.20;79.00;;;;;;4938312;28;20049;-83
2021/06/03 03:18:14;;;;;;;11.73;8.38;;;17.20;79.30;;;;;;4942203;28;20044;-83
2021/06/03 03:20:41;;;;;;;11.10;9.00;;;17.20;79.40;;;;;;4935951;28;20036;-83
2021/06/03 03:23:09;;;;;;;10.80;8.70;;;17.20;79.40;;;;;;4969830;28;20047;-85
2021/06/03 03:25:36;;;;;;;16.23;9.10;;;17.20;79.40;;;;;;4940005;28;20039;-84
2021/06/03 03:28:03;;;;;;;11.32;9.40;;;17.10;79.50;;;;;;4938146;28;20059;-83
2021/06/03 03:30:31;;;;;;;10.38;8.80;;;17.10;79.70;;;;;;4945853;28;20038;-83
2021/06/03 03:32:57;;;;;;;13.10;9.23;;;17.10;79.70;;;;;;4948007;28;20070;-84
2021/06/03 03:35:23;;;;;;;12.65;9.45;;;17.10;79.80;;;;;;4922612;29;20047;-83
2021/06/03 03:37:50;;;;;;;13.57;9.40;;;17.10;79.90;;;;;;4924366;29;20047;-82
2021/06/03 03:40:20;;;;;;;12.85;9.10;;;17.10;80.00;;;;;;4953088;28;20049;-83
2021/06/03 03:42:46;;;;;;;14.80;9.13;;;17.10;80.00;;;;;;4948974;28;20253;-83
2021/06/03 03:45:16;;;;;;;12.48;9.25;;;17.10;79.90;;;;;;4947805;28;20142;-83
2021/06/03 03:47:42;;;;;;;11.60;9.50;;;17.10;80.00;;;;;;4936754;28;20039;-84
2021/06/03 03:50:10;;;;;;;12.15;9.40;;;17.10;79.90;;;;;;4964307;28;20046;-84
2021/06/03 03:52:38;;;;;;;14.27;10.20;;;17.20;79.90;;;;;;4953083;28;20118;-84
2021/06/03 03:55:05;;;;;;;12.30;9.63;;;17.20;79.90;;;;;;4939494;28;20098;-83
2021/06/03 03:57:31;;;;;;;14.13;10.23;;;17.20;79.90;;;;;;4921629;29;20098;-84
2021/06/03 03:59:57;;;;;;;12.20;9.68;;;17.20;80.00;;;;;;4935241;28;20047;-84
2021/06/03 04:02:23;;;;;;;12.18;9.63;;;17.20;80.20;;;;;;4933745;28;20491;-85
2021/06/03 04:04:49;;;;;;;16.45;9.60;;;17.20;80.30;;;;;;4950031;28;20043;-83
2021/06/03 04:07:15;;;;;;;11.77;9.45;;;17.20;80.50;;;;;;4934093;28;20050;-84
2021/06/03 04:09:41;;;;;;;12.60;9.05;;;17.20;80.70;;;;;;4938002;28;20035;-82
2021/06/03 04:12:09;;;;;;;11.98;9.18;;;17.20;80.80;;;;;;4932591;28;20330;-83
2021/06/03 04:14:35;;;;;;;14.18;8.82;;;17.20;80.90;;;;;;4933131;28;20138;-84
2021/06/03 04:17:01;;;;;;;11.23;8.95;;;17.20;80.80;;;;;;4939280;28;20123;-81
2021/06/03 04:19:27;;;;;;;13.95;9.00;;;17.20;80.60;;;;;;4958629;28;20520;-83
2021/06/03 04:21:52;;;;;;;14.68;8.75;;;17.30;80.70;;;;;;4937027;28;20058;-82
2021/06/03 04:24:19;;;;;;;11.77;8.60;;;17.30;80.60;;;;;;4919841;29;20067;-83
2021/06/03 04:26:45;;;;;;;11.75;9.30;;;17.30;80.30;;;;;;4966374;28;20078;-83
2021/06/03 04:29:11;;;;;;;9.43;7.93;;;17.40;80.40;;;;;;4919089;29;20058;-82
2021/06/03 04:31:37;;;;;;;13.52;8.52;;;17.40;80.40;;;;;;4950836;28;20043;-82
2021/06/03 04:34:05;;;;;;;14.10;8.10;;;17.40;80.10;;;;;;4948064;29;20035;-83
2021/06/03 04:36:31;;;;;;;10.13;8.23;;;17.50;80.00;;;;;;4932719;29;20050;-83
2021/06/03 04:38:56;;;;;;;9.48;8.18;;;17.50;80.20;;;;;;4950884;28;20162;-83
2021/06/03 04:41:22;;;;;;;12.05;7.95;;;17.50;80.90;;;;;;4964971;28;20100;-82
2021/06/03 04:43:48;;;;;;;12.07;8.40;;;17.50;80.10;;;;;;4964267;28;20566;-83
2021/06/03 04:46:15;;;;;;;12.48;8.02;;;17.50;80.00;;;;;;4930527;28;20076;-82
2021/06/03 04:48:41;;;;;;;10.00;8.32;;;17.60;80.00;;;;;;4963362;28;20040;-82
2021/06/03 04:51:07;;;;;;;8.70;7.38;;;17.60;80.20;;;;;;4947843;28;20412;-83
2021/06/03 04:53:34;;;;;;;16.40;7.40;;;17.60;80.30;;;;;;4951452;28;20031;-83
2021/06/03 04:56:00;;;;;;;14.63;8.07;;;17.60;80.20;;;;;;4945469;28;20153;-82
2021/06/03 04:58:29;;;;;;;11.32;7.32;;;17.60;80.20;;;;;;4949616;28;20045;-85
2021/06/03 05:00:57;;;;;;;10.43;7.28;;;17.70;80.00;;;;;;4938629;28;20056;-83
2021/06/03 05:03:22;;;;;;;10.68;7.10;;;17.70;80.00;;;;;;4915933;29;20306;-84
2021/06/03 05:05:49;;;;;;;10.35;7.35;;;17.80;80.00;;;;;;4909351;28;20466;-84
2021/06/03 05:08:15;;;;;;;14.48;6.63;;;17.80;79.70;;;;;;4965124;28;20074;-84
2021/06/03 05:10:41;;;;;;;10.50;7.20;;;17.80;79.70;;;;;;4933212;28;20039;-83
2021/06/03 05:13:08;;;;;;;9.70;6.88;;;17.80;79.70;;;;;;4947328;28;20109;-83
2021/06/03 05:15:34;;;;;;;9.93;7.40;;;17.90;79.80;;;;;;4946361;28;20145;-82
2021/06/03 05:18:00;;;;;;;8.23;7.40;;;17.90;80.60;;;;;;4949050;28;20126;-83
2021/06/03 05:20:28;;;;;;;8.40;6.82;;;18.00;79.70;;;;;;4934285;29;20582;-83
2021/06/03 05:22:56;;;;;;;10.18;6.90;;;18.00;79.60;;;;;;4940748;28;20526;-84
2021/06/03 05:25:24;;;;;;;10.75;7.10;;;18.00;79.40;;;;;;4951752;28;20561;-82
2021/06/03 05:27:50;;;;;;;11.00;7.60;;;18.10;79.60;;;;;;4952763;28;20031;-84
2021/06/03 05:30:18;;;;;;;13.38;6.95;;;18.10;79.60;;;;;;4908818;28;20346;-84
2021/06/03 05:32:44;;;;;;;9.55;7.07;;;18.20;79.50;;;;;;4952503;28;20039;-84
2021/06/03 05:35:13;;;;;;;10.75;7.32;;;18.30;79.60;;;;;;4969906;28;20035;-83
2021/06/03 05:37:40;;;;;;;8.40;7.25;;;18.30;79.60;;;;;;4964389;28;20521;-84
2021/06/03 05:40:07;;;;;;;10.07;7.65;;;18.40;79.70;;;;;;4927876;28;20039;-83
2021/06/03 05:42:33;;;;;;;12.93;7.95;;;18.40;79.40;;;;;;4944186;28;20039;-83
2021/06/03 05:44:59;;;;;;;9.25;7.40;;;18.50;79.40;;;;;;4938504;28;20047;-82
2021/06/03 05:47:25;;;;;;;12.45;7.75;;;18.60;79.50;;;;;;4936582;28;20420;-83
2021/06/03 05:49:51;;;;;;;8.93;7.13;;;18.60;79.30;;;;;;4932803;28;20044;-84
2021/06/03 05:52:17;;;;;;;12.15;6.82;;;18.70;79.10;;;;;;4915372;29;20085;-83
2021/06/03 05:54:43;;;;;;;10.60;7.32;;;18.80;79.20;;;;;;4932164;29;20103;-84
2021/06/03 05:57:09;;;;;;;11.20;7.50;;;18.90;79.00;;;;;;4924690;28;20036;-83
2021/06/03 05:59:35;;;;;;;10.23;7.78;;;19.00;78.80;;;;;;4953172;28;20538;-83
2021/06/03 06:02:05;;;;;;;11.55;7.05;;;19.10;78.40;;;;;;4969498;28;20044;-82
2021/06/03 06:07:02;;;;;;;10.52;7.30;;;19.20;77.90;;;;;;4966592;28;20415;-83
2021/06/03 06:09:28;;;;;;;10.73;7.35;;;19.30;77.70;;;;;;4931266;28;20095;-82
2021/06/03 06:11:54;;;;;;;8.68;7.18;;;19.30;77.40;;;;;;4964663;28;20217;-82
2021/06/03 06:14:20;;;;;;;12.75;7.47;;;19.40;77.50;;;;;;4918130;29;20559;-82
2021/06/03 06:16:46;;;;;;;9.77;8.18;;;19.40;77.80;;;;;;4952377;28;20067;-82
2021/06/03 06:19:12;;;;;;;9.23;7.72;;;19.50;77.80;;;;;;4949288;29;20403;-83
2021/06/03 06:21:53;;;;;;;11.05;7.63;;;19.50;78.00;;;;;;4946251;28;20314;-82
2021/06/03 06:24:18;;;;;;;12.57;8.20;;;19.50;78.00;;;;;;4942035;28;20114;-82
2021/06/03 06:26:45;;;;;;;10.32;8.27;;;19.60;77.70;;;;;;4948528;28;20031;-84
2021/06/03 06:29:10;;;;;;;10.23;8.02;;;19.60;77.50;;;;;;4945095;28;20099;-82
2021/06/03 06:31:43;;;;;;;10.43;8.25;;;19.70;77.30;;;;;;4945075;28;20043;-83
2021/06/03 06:34:08;;;;;;;11.80;8.07;;;19.80;77.10;;;;;;4947885;28;20098;-83
2021/06/03 06:36:34;;;;;;;10.27;8.07;;;19.80;77.20;;;;;;4945040;29;20035;-83
2021/06/03 06:39:01;;;;;;;11.05;7.82;;;19.90;77.10;;;;;;4967314;28;20043;-82
2021/06/03 06:41:27;;;;;;;8.77;7.68;;;19.90;76.80;;;;;;4919354;29;20509;-82
2021/06/03 06:43:52;;;;;;;11.13;7.57;;;20.00;77.00;;;;;;4944570;28;20039;-82
2021/06/03 06:46:18;;;;;;;11.23;7.53;;;20.00;77.00;;;;;;4930758;28;20043;-82
2021/06/03 06:48:45;;;;;;;13.10;7.63;;;20.00;77.00;;;;;;4926151;28;20036;-81
2021/06/03 06:51:10;;;;;;;13.45;8.35;;;20.10;76.90;;;;;;4935577;28;20385;-82
2021/06/03 06:53:36;;;;;;;11.05;8.98;;;20.00;76.80;;;;;;4968304;28;20035;-81
2021/06/03 06:56:02;;;;;;;11.48;8.32;;;20.10;76.50;;;;;;4984415;28;20148;-81
2021/06/03 06:58:28;;;;;;;11.00;8.48;;;20.10;76.30;;;;;;4955534;28;20619;-81
2021/06/03 07:00:55;;;;;;;10.40;8.57;;;20.20;76.20;;;;;;4952626;29;20071;-81
2021/06/03 07:03:21;;;;;;;13.48;8.23;;;20.20;76.40;;;;;;4920015;29;20356;-81
2021/06/03 07:05:47;;;;;;;14.57;8.30;;;20.20;76.50;;;;;;4965749;28;20071;-82
2021/06/03 07:08:14;;;;;;;10.48;8.05;;;20.20;76.70;;;;;;4937038;28;20030;-80
2021/06/03 07:10:40;;;;;;;12.52;8.95;;;20.30;76.70;;;;;;4952600;28;20035;-82
2021/06/03 07:13:07;;;;;;;10.70;8.07;;;20.30;77.20;;;;;;4954784;28;20070;-82
2021/06/03 07:15:33;;;;;;;9.75;8.40;;;20.30;76.70;;;;;;4929237;29;20392;-82
2021/06/03 07:17:59;;;;;;;15.55;9.35;;;20.30;76.60;;;;;;4957939;28;20051;-83
2021/06/03 07:20:25;;;;;;;13.98;9.32;;;20.30;76.80;;;;;;4943327;29;20165;-83
2021/06/03 07:22:54;;;;;;;10.85;8.85;;;20.20;77.50;;;;;;4929999;28;20174;-82
2021/06/03 07:25:24;;;;;;;10.60;9.23;;;20.20;77.90;;;;;;4963026;28;20042;-83
2021/06/03 07:27:51;;;;;;;12.82;9.25;;;20.20;78.00;;;;;;4949497;28;20287;-82
2021/06/03 07:30:20;;;;;;;14.10;9.43;;;20.20;77.70;;;;;;4926381;28;20055;-82
2021/06/03 07:33:06;;;;;;;12.27;9.90;;;20.20;78.00;;;;;;4917169;28;20041;-82
2021/06/03 07:35:34;;;;;;;14.27;8.82;;;20.20;77.90;;;;;;4935133;28;20211;-83
2021/06/03 07:38:00;;;;;;;11.43;9.40;;;20.30;78.20;;;;;;4965731;28;20190;-84
2021/06/03 07:40:33;;;;;;;14.32;9.32;;;20.30;78.20;;;;;;4934027;28;20031;-83
2021/06/03 07:42:59;;;;;;;16.30;10.07;;;20.30;78.60;;;;;;4941335;28;20260;-81
2021/06/03 07:45:28;;;;;;;13.50;9.63;;;20.40;78.50;;;;;;4947387;28;20117;-81
2021/06/03 07:47:56;;;;;;;12.82;10.23;;;20.40;78.50;;;;;;4938652;28;20047;-82
2021/06/03 07:50:28;;;;;;;12.98;10.02;;;20.50;78.70;;;;;;4962586;28;20047;-82
2021/06/03 07:52:55;;;;;;;16.60;10.15;;;20.50;78.70;;;;;;4946130;28;20074;-82
2021/06/03 07:55:21;;;;;;;14.40;10.00;;;20.50;78.80;;;;;;4947519;28;20470;-82
2021/06/03 07:57:50;;;;;;;15.57;9.90;;;20.60;78.60;;;;;;4951778;28;20062;-81
2021/06/03 08:00:20;;;;;;;12.18;9.90;;;20.60;78.50;;;;;;4950917;28;20558;-81
2021/06/03 08:02:47;;;;;;;14.77;11.00;;;20.60;78.00;;;;;;4935961;29;20034;-83
2021/06/03 08:05:19;;;;;;;12.48;10.00;;;20.70;77.70;;;;;;4951650;28;20090;-82
2021/06/03 08:07:46;;;;;;;11.90;10.60;;;20.70;77.50;;;;;;4954034;28;20058;-83
2021/06/03 08:10:14;;;;;;;13.88;10.63;;;20.70;77.50;;;;;;4917808;29;20031;-82
2021/06/03 08:12:43;;;;;;;12.88;11.38;;;20.70;77.20;;;;;;4982446;28;20098;-83
2021/06/03 08:15:12;;;;;;;16.23;11.38;;;20.80;77.80;;;;;;4929685;29;20047;-83
2021/06/03 08:17:50;;;;;;;17.13;11.90;;;20.70;78.00;;;;;;4965677;28;20487;-82
2021/06/03 08:20:23;;;;;;;14.43;12.20;;;20.80;78.10;;;;;;4925201;29;20345;-85
2021/06/03 08:22:49;;;;;;;12.57;11.32;;;20.80;78.70;;;;;;4933093;28;20491;-82
2021/06/03 08:25:17;;;;;;;15.77;12.90;;;20.90;78.80;;;;;;4917969;29;20042;-83
2021/06/03 08:27:43;;;;;;;12.73;11.38;;;20.90;78.40;;;;;;4921369;29;20046;-82
2021/06/03 08:30:12;;;;;;;14.32;11.80;;;21.00;78.10;;;;;;4940554;28;20030;-83
2021/06/03 08:32:40;;;;;;;15.10;12.85;;;21.00;77.90;;;;;;4920299;29;20038;-82
2021/06/03 08:35:13;;;;;;;17.98;12.57;;;21.00;78.00;;;;;;4945582;28;20043;-83
2021/06/03 08:38:04;;;;;;;18.15;12.88;;;21.00;78.10;;;;;;4934158;28;20078;-82
2021/06/03 08:40:42;;;;;;;15.63;12.50;;;21.10;78.30;;;;;;4926026;29;20031;-83
2021/06/03 08:43:09;;;;;;;17.38;12.82;;;21.10;78.40;;;;;;4928618;28;20094;-83
2021/06/03 08:45:38;;;;;;;13.23;11.82;;;21.20;78.70;;;;;;4932803;28;20042;-83
2021/06/03 08:48:05;;;;;;;16.95;13.60;;;21.30;78.70;;;;;;4966629;28;20498;-82
2021/06/03 08:50:34;;;;;;;16.65;12.95;;;21.50;78.10;;;;;;4966255;28;20454;-81
2021/06/03 08:53:01;;;;;;;15.00;13.48;;;21.60;77.60;;;;;;4937532;28;20509;-83
2021/06/03 08:58:16;;;;;;;15.82;13.82;;;21.60;77.90;;;;;;4953820;28;20042;-82
2021/06/03 09:00:43;;;;;;;15.40;13.10;;;21.70;77.70;;;;;;4944242;28;20040;-82
2021/06/03 09:03:10;;;;;;;15.40;13.77;;;21.70;78.00;;;;;;4933150;28;20094;-82
2021/06/03 09:05:37;;;;;;;16.67;14.40;;;21.70;77.80;;;;;;4943974;28;21927;-83
2021/06/03 09:08:36;;;;;;;15.85;14.15;;;21.80;77.80;;;;;;4950377;28;20048;-82
2021/06/03 09:11:17;;;;;;;16.75;14.48;;;21.80;78.20;;;;;;4938290;28;20122;-83
2021/06/03 09:13:51;;;;;;;16.30;14.60;;;21.90;78.10;;;;;;4947287;28;20036;-82
2021/06/03 09:16:24;;;;;;;17.80;14.77;;;21.90;77.90;;;;;;4954900;28;20038;-83
2021/06/03 09:19:09;;;;;;;17.83;13.82;;;22.00;77.40;;;;;;4952825;28;20063;-82
2021/06/03 09:21:47;;;;;;;15.07;12.90;;;22.10;78.20;;;;;;4946856;28;20090;-82
2021/06/03 09:24:15;;;;;;;15.60;12.80;;;22.10;78.00;;;;;;4931252;28;20039;-82
2021/06/03 09:26:55;;;;;;;15.20;12.95;;;22.20;77.70;;;;;;4914098;29;20042;-84
2021/06/03 09:29:20;;;;;;;14.88;13.32;;;22.20;77.20;;;;;;4962332;28;20038;-83
2021/06/03 09:31:46;;;;;;;15.70;13.73;;;22.20;76.80;;;;;;4964625;28;20035;-82
2021/06/03 09:34:22;;;;;;;18.85;14.20;;;22.20;77.50;;;;;;4929953;29;20155;-81
2021/06/03 09:36:54;;;;;;;14.68;12.35;;;22.30;76.50;;;;;;4945221;28;20035;-80
2021/06/03 09:39:34;;;;;;;15.57;13.07;;;22.40;77.00;;;;;;4976567;28;20051;-83
2021/06/03 09:42:18;;;;;;;18.65;13.82;;;22.40;76.70;;;;;;4960493;28;20898;-83
2021/06/03 09:44:52;;;;;;;15.23;13.05;;;22.50;76.00;;;;;;4962543;28;20032;-82
2021/06/03 09:47:23;;;;;;;15.70;13.52;;;22.50;76.00;;;;;;4933842;28;20046;-84
2021/06/03 09:49:52;;;;;;;15.13;13.05;;;22.60;76.60;;;;;;4954859;28;20663;-83
2021/06/03 09:52:26;;;;;;;14.85;12.48;;;22.70;76.80;;;;;;4948795;28;20426;-83
2021/06/03 09:54:57;;;;;;;15.55;12.70;;;22.80;76.60;;;;;;4945006;29;20040;-83
2021/06/03 09:57:31;;;;;;;15.05;12.80;;;22.80;77.10;;;;;;4932166;29;20046;-84
2021/06/03 10:00:00;;;;;;;16.10;12.20;;;22.90;76.40;;;;;;4946518;29;20459;-84
2021/06/03 10:02:26;;;;;;;12.60;11.18;;;22.90;77.00;;;;;;4933995;29;20058;-83
2021/06/03 10:04:53;;;;;;;13.52;12.13;;;22.90;77.10;;;;;;4950243;29;20039;-83
2021/06/03 10:07:24;;;;;;;13.70;12.25;;;22.90;76.70;;;;;;4951944;28;20051;-83
2021/06/03 10:09:56;;;;;;;14.32;11.23;;;23.10;76.50;;;;;;4935754;28;20243;-84
2021/06/03 10:12:27;;;;;;;14.63;11.35;;;23.20;76.50;;;;;;4955207;28;20071;-82
2021/06/03 10:14:54;;;;;;;15.27;12.05;;;23.30;75.80;;;;;;4953258;29;20684;-82
2021/06/03 10:17:23;;;;;;;16.77;11.98;;;23.40;74.80;;;;;;4942610;28;20052;-82
2021/06/03 10:19:52;;;;;;;12.38;11.05;;;23.50;74.10;;;;;;4940969;29;20038;-83
2021/06/03 10:22:25;;;;;;;15.80;10.30;;;23.60;74.40;;;;;;4936770;28;20031;-83
2021/06/03 10:25:05;;;;;;;13.70;11.93;;;23.80;74.30;;;;;;4970644;28;20043;-82
2021/06/03 10:27:48;;;;;;;15.30;11.20;;;23.90;74.00;;;;;;4938141;29;20047;-82
2021/06/03 10:30:22;;;;;;;14.45;10.65;;;23.90;72.90;;;;;;4970412;28;20031;-84
2021/06/03 10:32:51;;;;;;;13.38;9.98;;;23.90;72.60;;;;;;4941700;28;20040;-82
2021/06/03 10:35:21;;;;;;;12.45;10.52;;;24.00;73.00;;;;;;4941477;28;20043;-83
2021/06/03 10:37:47;;;;;;;15.27;9.85;;;24.00;71.70;;;;;;4939463;28;20043;-82
2021/06/03 10:40:16;;;;;;;11.63;9.75;;;24.00;72.30;;;;;;4928501;29;20163;-82
2021/06/03 10:42:43;;;;;;;15.48;9.80;;;24.00;72.30;;;;;;4942208;28;20103;-83
2021/06/03 10:45:11;;;;;;;13.25;8.55;;;24.00;72.00;;;;;;4924221;28;20046;-82
2021/06/03 10:47:38;;;;;;;10.05;7.55;;;24.00;72.40;;;;;;4943560;28;20070;-82
2021/06/03 10:50:07;;;;;;;11.70;7.32;;;24.10;71.50;;;;;;4939846;28;20046;-82
2021/06/03 10:52:34;;;;;;;9.68;7.45;;;24.10;70.70;;;;;;4934358;28;20049;-82
2021/06/03 10:55:00;;;;;;;9.35;7.55;;;24.20;70.10;;;;;;4956331;28;20039;-82
2021/06/03 10:57:45;;;;;;;8.35;7.07;;;24.30;69.60;;;;;;4957173;28;20082;-82
2021/06/03 11:00:42;;;;;;;14.68;6.60;;;24.30;69.70;;;;;;4960776;28;20498;-81
2021/06/03 11:03:19;;;;;;;8.52;7.07;;;24.40;68.50;;;;;;4930034;29;20051;-82
2021/06/03 11:05:59;;;;;;;8.68;7.10;;;24.40;68.00;;;;;;4945465;28;20475;-82
2021/06/03 11:08:34;;;;;;;12.00;7.50;;;24.50;67.50;;;;;;4948894;28;20070;-81
2021/06/03 11:11:23;;;;;;;12.55;7.57;;;24.60;67.20;;;;;;4989094;28;20035;-82
2021/06/03 11:13:49;;;;;;;13.88;7.57;;;24.70;67.60;;;;;;4951882;28;20031;-84
2021/06/03 11:16:27;;;;;;;8.63;7.63;;;24.70;65.60;;;;;;4982999;28;20046;-82
2021/06/03 11:18:53;;;;;;;9.98;7.35;;;24.70;65.80;;;;;;4946879;28;20419;-83
2021/06/03 11:21:34;;;;;;;10.45;7.25;;;24.70;65.90;;;;;;4963132;28;20082;-81
2021/06/03 11:24:03;;;;;;;11.95;8.63;;;24.70;66.80;;;;;;4943316;28;20114;-82
2021/06/03 11:26:45;;;;;;;10.48;6.82;;;24.80;66.30;;;;;;4965506;28;20035;-82
2021/06/03 11:29:18;;;;;;;10.02;6.70;;;24.80;66.60;;;;;;4948414;28;20039;-84
2021/06/03 11:31:50;;;;;;;10.50;6.78;;;25.00;66.70;;;;;;4981283;28;20063;-82
2021/06/03 11:34:22;;;;;;;8.07;7.20;;;25.10;66.80;;;;;;4966207;28;20037;-82
2021/06/03 11:36:58;;;;;;;;;;;25.20;66.60;;;;;;4954139;29;20058;-82
2021/06/03 11:39:35;;;;;;;7.78;6.55;;;25.30;66.70;;;;;;4929666;29;19932;-82
2021/06/03 11:42:23;;;;;;;9.32;6.32;;;25.30;64.30;;;;;;4951409;29;20070;-83
2021/06/03 11:45:12;;;;;;;8.48;6.10;;;25.40;63.70;;;;;;4964280;28;20059;-83
2021/06/03 11:47:38;;;;;;;10.35;6.35;;;25.50;63.60;;;;;;4948019;29;20043;-83
2021/06/03 11:50:04;;;;;;;11.07;5.95;;;25.50;63.00;;;;;;4960337;28;20035;-82
2021/06/03 11:52:30;;;;;;;10.60;5.72;;;25.40;62.80;;;;;;4945368;28;20027;-81
2021/06/03 11:55:03;;;;;;;5.53;4.95;;;25.40;63.30;;;;;;4954109;29;20688;-82
2021/06/03 11:57:31;;;;;;;9.75;5.38;;;25.50;63.10;;;;;;4976258;28;20055;-82
2021/06/03 11:59:57;;;;;;;8.43;5.68;;;25.60;62.40;;;;;;4946136;28;20042;-82
2021/06/03 12:02:28;;;;;;;9.02;5.28;;;25.60;62.30;;;;;;4952702;28;20036;-82
2021/06/03 12:05:12;;;;;;;7.28;6.05;;;25.70;61.90;;;;;;4948723;28;20027;-81
2021/06/03 12:07:40;;;;;;;10.32;5.32;;;25.70;62.30;;;;;;4961498;28;20043;-82
2021/06/03 12:10:07;;;;;;;6.63;4.60;;;25.80;62.10;;;;;;4956096;28;20035;-82
2021/06/03 12:12:33;;;;;;;9.68;5.68;;;25.80;61.50;;;;;;4921166;29;20055;-82
2021/06/03 12:14:59;;;;;;;8.52;5.57;;;25.90;61.30;;;;;;4930765;29;20098;-82
2021/06/03 12:17:25;;;;;;;6.30;5.40;;;26.00;61.20;;;;;;4948325;28;20040;-82
2021/06/03 12:19:52;;;;;;;5.38;4.78;;;26.00;61.20;;;;;;4951154;28;20746;-84
2021/06/03 12:22:26;;;;;;;6.47;4.72;;;26.00;61.70;;;;;;4927137;29;20039;-83
2021/06/03 12:24:58;;;;;;;7.60;4.78;;;26.10;60.40;;;;;;4949416;28;20463;-82
2021/06/03 12:27:28;;;;;;;5.57;4.63;;;26.20;59.60;;;;;;4949026;28;20070;-82
2021/06/03 12:30:08;;;;;;;5.07;4.28;;;26.30;58.90;;;;;;4944377;28;20856;-84
2021/06/03 12:32:34;;;;;;;6.90;3.97;;;26.30;58.40;;;;;;4948822;28;20066;-83
2021/06/03 12:35:00;;;;;;;4.53;3.88;;;26.40;57.90;;;;;;4974071;28;20043;-83
2021/06/03 12:37:34;;;;;;;5.13;3.90;;;26.50;58.30;;;;;;4949747;29;20309;-82
2021/06/03 12:40:05;;;;;;;8.20;4.03;;;26.50;57.60;;;;;;4953795;28;20063;-83
2021/06/03 12:42:31;;;;;;;4.35;3.85;;;26.50;57.80;;;;;;4945477;29;20040;-84
2021/06/03 12:45:04;;;;;;;7.88;4.28;;;26.60;56.70;;;;;;4943874;28;20047;-83
2021/06/03 12:47:33;;;;;;;5.10;3.90;;;26.60;56.10;;;;;;4949732;28;20110;-81
2021/06/03 12:50:16;;;;;;;4.20;3.80;;;26.60;56.40;;;;;;4936714;28;20099;-82